Valtamed — IBPB — position and weather

sailwx.info

Track history (hours):
 
Tides and Currents Weather Stations Pressure Air Temp Water Temp Dewpoint Dewpoint Depression Visibility Wind Speed Wind Dir Waves Ship Positions

Valtamed

Last reported at 2017-Nov-18 06:32 UTC. Time now 2017-Nov-24 20:54 UTC.
Position N 34°13' E 033°23'.

Length 274 m; draft 9.7 m.

Type: Ship. MMSI: 247114500.

Date/timePositionNaut miles runAvg speedWind from/ knotsBaromVisibWave heightAir tempDewpointWater temp
2017-Nov-18 06:32N 34°13' E 033°23'0 0.9
2017-Nov-18 06:30N 34°13' E 033°23'0 0.8
2017-Nov-18 06:00N 34°14' E 033°23'0 0.9
2017-Nov-18 05:30N 34°14' E 033°23'0 0.9
2017-Nov-18 05:00N 34°15' E 033°23'0 0.9
2017-Nov-18 04:30N 34°15' E 033°23'3 0.9
2017-Nov-18 01:19N 34°18' E 033°22'0 1.0
2017-Nov-18 00:52N 34°18' E 033°22'2 0.7
2017-Nov-17 22:22N 34°20' E 033°22'0 0.6
2017-Nov-17 22:00N 34°21' E 033°22'0 0.6
2017-Nov-17 21:17N 34°21' E 033°22'0 0.7
2017-Nov-17 21:00N 34°21' E 033°22'0 0.7
2017-Nov-17 20:30N 34°21' E 033°22'0 0.7
2017-Nov-17 20:00N 34°22' E 033°22'0 0.6
2017-Nov-17 19:25N 34°22' E 033°22'2 0.6
2017-Nov-17 16:31N 34°24' E 033°21'0 6.6
2017-Nov-17 16:30N 34°24' E 033°21'4 7.2
2017-Nov-17 16:00N 34°26' E 033°18'5 9.5
2017-Nov-17 15:30N 34°29' E 033°13'55 3.5
2017-Nov-16 23:32N 33°43' E 033°51'0 9.5
2017-Nov-16 23:29N 33°43' E 033°51'5 9.5
2017-Nov-16 23:00N 33°39' E 033°54'5 9.6
2017-Nov-16 22:30N 33°35' E 033°57'5 9.7
2017-Nov-16 22:00N 33°31' E 033°60'5 9.2
2017-Nov-16 21:30N 33°26' E 034°02'5 9.5
2017-Nov-16 21:00N 33°22' E 034°02'5 9.5
2017-Nov-16 20:30N 33°17' E 034°02'5 9.2
2017-Nov-16 20:00N 33°12' E 034°02'5 9.1
2017-Nov-16 19:30N 33°08' E 034°02'5 9.2
2017-Nov-16 19:00N 33°03' E 034°02'5 9.2
2017-Nov-16 18:30N 32°59' E 034°02'5 9.3
2017-Nov-16 18:00N 32°54' E 034°03'5 9.4
2017-Nov-16 17:30N 32°50' E 034°05'5 9.2
2017-Nov-16 17:00N 32°45' E 034°07'5 9.1
2017-Nov-16 16:30N 32°41' E 034°09'4 8.9
2017-Nov-16 16:00N 32°37' E 034°10'5 9.0
2017-Nov-16 15:24N 32°32' E 034°13'4 9.1
2017-Nov-16 15:00N 32°28' E 034°14'5 9.0
2017-Nov-16 14:30N 32°24' E 034°16'611.1
2017-Nov-16 14:00N 32°19' E 034°18'  
Track history (hours):
 
Tides and Currents Weather Stations Pressure Air Temp Water Temp Dewpoint Dewpoint Depression Visibility Wind Speed Wind Dir Waves Ship Positions

Valtamed

Last reported at 2017-Nov-18 06:32 UTC. Time now 2017-Nov-24 20:54 UTC.
Position N 34°13' E 033°23'.

Length 274 m; draft 9.7 m.

Type: Ship. MMSI: 247114500.

Date/timePositionNaut miles runAvg speedWind from/ knotsBaromVisibWave heightAir tempDewpointWater temp
2017-Nov-18 06:32N 34°13' E 033°23'0 0.9
2017-Nov-18 06:30N 34°13' E 033°23'0 0.8
2017-Nov-18 06:00N 34°14' E 033°23'0 0.9
2017-Nov-18 05:30N 34°14' E 033°23'0 0.9
2017-Nov-18 05:00N 34°15' E 033°23'0 0.9
2017-Nov-18 04:30N 34°15' E 033°23'3 0.9
2017-Nov-18 01:19N 34°18' E 033°22'0 1.0
2017-Nov-18 00:52N 34°18' E 033°22'2 0.7
2017-Nov-17 22:22N 34°20' E 033°22'0 0.6
2017-Nov-17 22:00N 34°21' E 033°22'0 0.6
2017-Nov-17 21:17N 34°21' E 033°22'0 0.7
2017-Nov-17 21:00N 34°21' E 033°22'0 0.7
2017-Nov-17 20:30N 34°21' E 033°22'0 0.7
2017-Nov-17 20:00N 34°22' E 033°22'0 0.6
2017-Nov-17 19:25N 34°22' E 033°22'2 0.6
2017-Nov-17 16:31N 34°24' E 033°21'0 6.6
2017-Nov-17 16:30N 34°24' E 033°21'4 7.2
2017-Nov-17 16:00N 34°26' E 033°18'5 9.5
2017-Nov-17 15:30N 34°29' E 033°13'55 3.5
2017-Nov-16 23:32N 33°43' E 033°51'0 9.5
2017-Nov-16 23:29N 33°43' E 033°51'5 9.5
2017-Nov-16 23:00N 33°39' E 033°54'5 9.6
2017-Nov-16 22:30N 33°35' E 033°57'5 9.7
2017-Nov-16 22:00N 33°31' E 033°60'5 9.2
2017-Nov-16 21:30N 33°26' E 034°02'5 9.5
2017-Nov-16 21:00N 33°22' E 034°02'5 9.5
2017-Nov-16 20:30N 33°17' E 034°02'5 9.2
2017-Nov-16 20:00N 33°12' E 034°02'5 9.1
2017-Nov-16 19:30N 33°08' E 034°02'5 9.2
2017-Nov-16 19:00N 33°03' E 034°02'5 9.2
2017-Nov-16 18:30N 32°59' E 034°02'5 9.3
2017-Nov-16 18:00N 32°54' E 034°03'5 9.4
2017-Nov-16 17:30N 32°50' E 034°05'5 9.2
2017-Nov-16 17:00N 32°45' E 034°07'5 9.1
2017-Nov-16 16:30N 32°41' E 034°09'4 8.9
2017-Nov-16 16:00N 32°37' E 034°10'5 9.0
2017-Nov-16 15:24N 32°32' E 034°13'4 9.1
2017-Nov-16 15:00N 32°28' E 034°14'5 9.0
2017-Nov-16 14:30N 32°24' E 034°16'611.1
2017-Nov-16 14:00N 32°19' E 034°18'  

Dump ship's entire track history